TAF Text Data
IDs:
Format:
Raw Decoded Include METAR

Data at: 0519 UTC 18 Oct 2018

KTCS 180453Z AUTO 01011KT 10SM OVC037 11/04 A3035 RMK AO2 SLP242 T01060039

KTCS 172325Z 1800/1824 05010KT P6SM OVC035
  FM180900 03008KT P6SM BKN026 OVC035
  FM181700 01005KT P6SM OVC035